createdAt,value
2023-04-18T00:02:45.784Z,103124.25
2023-04-18T00:08:06.491Z,103126.94
2023-04-18T00:13:28.346Z,103136.50
2023-04-18T00:18:48.785Z,103135.66
2023-04-18T00:24:09.188Z,103134.69
2023-04-18T00:29:31.745Z,103138.94
2023-04-18T00:34:52.135Z,103140.59
2023-04-18T00:40:14.000Z,103135.38
2023-04-18T00:45:35.679Z,103139.53
2023-04-18T00:50:57.191Z,103137.81
2023-04-18T00:56:17.821Z,103141.06
2023-04-18T01:01:40.190Z,103134.19
2023-04-18T01:07:02.212Z,103135.84
2023-04-18T01:12:23.134Z,103138.34
2023-04-18T01:17:43.822Z,103140.81
2023-04-18T01:23:04.449Z,103142.38
2023-04-18T01:28:27.770Z,103155.94
2023-04-18T01:33:49.771Z,103151.56
2023-04-18T01:39:10.465Z,103153.16
2023-04-18T01:44:56.917Z,103156.47
2023-04-18T01:50:17.492Z,103158.97
2023-04-18T01:55:38.152Z,103160.69
2023-04-18T02:00:59.434Z,103152.00
2023-04-18T02:06:20.486Z,103155.47
2023-04-18T02:11:41.795Z,103149.44
2023-04-18T02:17:02.563Z,103148.50
2023-04-18T02:22:23.172Z,103157.91
2023-04-18T02:27:44.645Z,103148.50
2023-04-18T02:33:05.504Z,103157.84
2023-04-18T02:38:25.732Z,103147.53
2023-04-18T02:43:46.651Z,103153.47
2023-04-18T02:49:15.582Z,103149.13
2023-04-18T02:54:37.730Z,103152.53
2023-04-18T03:00:04.603Z,103161.78
2023-04-18T03:05:51.849Z,103159.03
2023-04-18T03:11:13.088Z,103173.47
2023-04-18T03:16:33.964Z,103174.28
2023-04-18T03:21:56.789Z,103158.00
2023-04-18T03:27:17.465Z,103163.91
2023-04-18T03:32:42.186Z,103161.28
2023-04-18T03:38:02.969Z,103175.75
2023-04-18T03:43:27.238Z,103175.69
2023-04-18T03:48:48.517Z,103181.53
2023-04-18T03:54:09.032Z,103181.44
2023-04-18T03:59:29.908Z,103178.78
2023-04-18T04:04:50.756Z,103176.22
2023-04-18T04:10:11.454Z,103170.25
2023-04-18T04:15:32.090Z,103164.25
2023-04-18T04:20:59.103Z,103170.25
2023-04-18T04:26:36.853Z,103184.72
2023-04-18T04:32:06.706Z,103186.41
2023-04-18T04:37:33.477Z,103177.88
2023-04-18T04:43:05.498Z,103188.19
2023-04-18T04:48:31.227Z,103191.69
2023-04-18T04:53:51.629Z,103195.19
2023-04-18T04:59:12.439Z,103206.31
2023-04-18T05:04:36.196Z,103207.88
2023-04-18T05:09:57.060Z,103206.25
2023-04-18T05:15:20.434Z,103212.25
2023-04-18T05:20:43.320Z,103208.03
2023-04-18T05:26:05.100Z,103208.78
2023-04-18T05:31:26.758Z,103207.06
2023-04-18T05:36:47.863Z,103217.50
2023-04-18T05:42:08.437Z,103213.38
2023-04-18T05:47:30.267Z,103226.63
2023-04-18T05:52:50.955Z,103229.47
2023-04-18T05:58:11.422Z,103226.41
2023-04-18T06:03:32.153Z,103230.03
2023-04-18T06:08:54.225Z,103216.59
2023-04-18T06:14:14.982Z,103222.78
2023-04-18T06:19:35.753Z,103229.88
2023-04-18T06:24:56.423Z,103227.41
2023-04-18T06:30:16.940Z,103234.63
2023-04-18T06:35:38.041Z,103238.25
2023-04-18T06:40:58.947Z,103239.38
2023-04-18T06:46:19.676Z,103234.47
2023-04-18T06:51:40.600Z,103247.47
2023-04-18T06:57:03.685Z,103245.94
2023-04-18T07:02:24.330Z,103247.88
2023-04-18T07:07:45.368Z,103258.41
2023-04-18T07:13:06.058Z,103263.00
2023-04-18T07:18:37.433Z,103267.56
2023-04-18T07:23:58.634Z,103273.00
2023-04-18T07:29:19.559Z,103271.47
2023-04-18T07:34:40.341Z,103278.47
2023-04-18T07:40:00.983Z,103274.34
2023-04-18T07:45:21.825Z,103272.91
2023-04-18T07:50:42.509Z,103272.22
2023-04-18T07:56:03.097Z,103274.06
2023-04-18T08:01:24.701Z,103273.47
2023-04-18T08:06:45.168Z,103276.22
2023-04-18T08:12:05.800Z,103267.84
2023-04-18T08:17:26.652Z,103281.03
2023-04-18T08:23:05.193Z,103288.84
2023-04-18T08:28:28.970Z,103282.13
2023-04-18T08:33:49.567Z,103293.44
2023-04-18T08:39:10.188Z,103283.31
2023-04-18T08:44:31.296Z,103293.78
2023-04-18T08:49:52.165Z,103299.06
2023-04-18T08:55:12.760Z,103286.25
2023-04-18T09:00:34.101Z,103282.00
2023-04-18T09:06:10.013Z,103275.13
2023-04-18T09:19:54.515Z,103286.38
2023-04-18T09:25:35.690Z,103285.50
2023-04-18T09:30:57.626Z,103281.09
2023-04-18T09:36:22.054Z,103284.47
2023-04-18T09:41:58.423Z,103264.50
2023-04-18T09:47:19.158Z,103272.84
2023-04-18T09:52:41.797Z,103278.44
2023-04-18T09:58:04.741Z,103271.97
2023-04-18T10:03:34.512Z,103269.75
2023-04-18T10:08:55.583Z,103268.56
2023-04-18T10:14:17.343Z,103269.91
2023-04-18T10:19:41.922Z,103275.19
2023-04-18T10:25:02.656Z,103283.28
2023-04-18T10:38:23.633Z,103262.72
2023-04-18T10:44:23.692Z,103269.97
2023-04-18T10:49:54.730Z,103274.59
2023-04-18T10:55:18.685Z,103277.69
2023-04-18T11:00:39.131Z,103297.13
2023-04-18T11:06:03.256Z,103291.94
2023-04-18T11:11:24.573Z,103307.75
2023-04-18T11:16:45.202Z,103298.94
2023-04-18T11:22:05.588Z,103296.56
2023-04-18T11:27:26.887Z,103306.59
2023-04-18T11:32:47.694Z,103294.03
2023-04-18T11:38:10.245Z,103287.88
2023-04-18T11:43:30.895Z,103287.75
2023-04-18T11:48:51.708Z,103291.75
2023-04-18T11:54:38.670Z,103279.50
2023-04-18T12:00:00.765Z,103278.78
2023-04-18T12:05:26.529Z,103269.72
2023-04-18T12:10:48.471Z,103264.28
2023-04-18T12:16:09.033Z,103272.75
2023-04-18T12:21:30.142Z,103263.31
2023-04-18T12:26:50.904Z,103259.53
2023-04-18T12:32:11.499Z,103265.59
2023-04-18T12:37:32.077Z,103262.53
2023-04-18T12:42:53.987Z,103240.56
2023-04-18T12:48:14.657Z,103258.00
2023-04-18T12:53:35.514Z,103245.91
2023-04-18T12:58:55.799Z,103241.53
2023-04-18T13:04:16.696Z,103248.16
2023-04-18T13:09:37.555Z,103234.63
2023-04-18T13:14:58.081Z,103239.47
2023-04-18T13:20:18.960Z,103247.13
2023-04-18T13:25:41.282Z,103240.72
2023-04-18T13:31:02.091Z,103241.78
2023-04-18T13:36:23.588Z,103237.97
2023-04-18T13:41:44.316Z,103215.97
2023-04-18T13:47:06.392Z,103213.91
2023-04-18T13:52:26.913Z,103222.78
2023-04-18T13:57:47.679Z,103236.31
2023-04-18T14:03:08.236Z,103238.19
2023-04-18T14:08:29.309Z,103237.09
2023-04-18T14:13:49.813Z,103225.78
2023-04-18T14:26:41.537Z,103231.75
2023-04-18T14:32:02.651Z,103227.63
2023-04-18T14:37:24.223Z,103215.78
2023-04-18T14:42:44.696Z,103223.72
2023-04-18T14:48:06.810Z,103213.13
2023-04-18T14:53:28.796Z,103216.91
2023-04-18T14:58:49.856Z,103211.34
2023-04-18T15:04:10.877Z,103211.22
2023-04-18T15:09:36.639Z,103182.28
2023-04-18T15:14:58.912Z,103201.53
2023-04-18T15:20:21.845Z,103182.16
2023-04-18T15:25:44.776Z,103174.28
2023-04-18T15:31:05.904Z,103177.38
2023-04-18T15:36:27.671Z,103180.09
2023-04-18T15:41:52.746Z,103169.44
2023-04-18T15:47:14.521Z,103170.22
2023-04-18T15:52:35.080Z,103171.78
2023-04-18T15:57:55.792Z,103176.63
2023-04-18T16:03:17.106Z,103172.97
2023-04-18T16:08:38.019Z,103169.88
2023-04-18T16:13:58.571Z,103174.16
2023-04-18T16:19:21.630Z,103171.38
2023-04-18T16:24:42.395Z,103169.00
2023-04-18T16:30:05.077Z,103173.59
2023-04-18T16:35:26.039Z,103178.13
2023-04-18T16:40:46.531Z,103173.91
2023-04-18T16:46:08.298Z,103175.59
2023-04-18T16:51:28.820Z,103184.25
2023-04-18T16:56:49.505Z,103182.91
2023-04-18T17:02:10.356Z,103178.19
2023-04-18T17:07:30.981Z,103188.06
2023-04-18T17:12:51.693Z,103186.50
2023-04-18T17:18:12.519Z,103197.50
2023-04-18T17:23:33.398Z,103195.00
2023-04-18T17:28:53.876Z,103194.28
2023-04-18T17:34:14.732Z,103200.75
2023-04-18T17:39:35.171Z,103201.16
2023-04-18T17:44:56.260Z,103211.06
2023-04-18T17:50:17.502Z,103214.81
2023-04-18T17:55:40.227Z,103212.59
2023-04-18T18:01:01.082Z,103223.34
2023-04-18T18:06:21.803Z,103220.91
2023-04-18T18:11:42.140Z,103228.88
2023-04-18T18:17:02.707Z,103233.31
2023-04-18T18:22:25.960Z,103234.31
2023-04-18T18:27:47.000Z,103237.03
2023-04-18T18:33:07.716Z,103251.75
2023-04-18T18:38:28.089Z,103247.53
2023-04-18T18:43:49.623Z,103251.03
2023-04-18T18:49:10.060Z,103265.72
2023-04-18T18:54:30.730Z,103262.25
2023-04-18T18:59:52.474Z,103269.09
2023-04-18T19:05:14.769Z,103269.03
2023-04-18T19:10:35.376Z,103275.78
2023-04-18T19:15:55.747Z,103281.50
2023-04-18T19:21:17.374Z,103285.53
2023-04-18T19:26:37.921Z,103285.28
2023-04-18T19:31:58.872Z,103296.16
2023-04-18T19:37:19.368Z,103291.63
2023-04-18T19:42:39.891Z,103292.28
2023-04-18T19:48:00.332Z,103292.41
2023-04-18T19:53:21.240Z,103286.94
2023-04-18T19:58:46.577Z,103297.00
2023-04-18T20:04:08.322Z,103291.75
2023-04-18T20:09:29.088Z,103301.91
2023-04-18T20:14:50.269Z,103297.59
2023-04-18T20:20:11.575Z,103300.88
2023-04-18T20:25:33.570Z,103297.09
2023-04-18T20:30:54.515Z,103299.59
2023-04-18T20:36:17.514Z,103300.97
2023-04-18T20:41:38.444Z,103303.38
2023-04-18T20:46:59.350Z,103299.03
2023-04-18T20:52:19.933Z,103302.97
2023-04-18T20:57:40.865Z,103305.00
2023-04-18T21:03:01.486Z,103301.28
2023-04-18T21:08:22.143Z,103312.34
2023-04-18T21:13:42.445Z,103309.53
2023-04-18T21:19:03.081Z,103318.28
2023-04-18T21:24:23.493Z,103315.38
2023-04-18T21:29:44.247Z,103318.66
2023-04-18T21:35:04.973Z,103311.00
2023-04-18T21:40:30.717Z,103324.63
2023-04-18T21:45:51.285Z,103321.25
2023-04-18T21:51:15.235Z,103310.97
2023-04-18T21:56:35.583Z,103314.94
2023-04-18T22:01:56.799Z,103318.25
2023-04-18T22:07:20.978Z,103319.91
2023-04-18T22:12:42.376Z,103336.09
2023-04-18T22:18:04.325Z,103330.91
2023-04-18T22:23:26.232Z,103328.25
2023-04-18T22:28:47.478Z,103329.03
2023-04-18T22:34:07.881Z,103339.19
2023-04-18T22:39:28.175Z,103334.78
2023-04-18T22:44:48.469Z,103339.81
2023-04-18T22:50:09.768Z,103337.09
2023-04-18T22:55:30.459Z,103348.31
2023-04-18T23:00:51.134Z,103351.69
2023-04-18T23:06:12.066Z,103350.03
2023-04-18T23:11:32.650Z,103355.00
2023-04-18T23:16:53.661Z,103348.03
2023-04-18T23:22:14.230Z,103352.84
2023-04-18T23:27:34.847Z,103361.78
2023-04-18T23:32:55.217Z,103359.19
2023-04-18T23:38:15.460Z,103363.78
2023-04-18T23:43:35.767Z,103366.19
2023-04-18T23:48:56.300Z,103346.47
2023-04-18T23:54:17.032Z,103344.94
2023-04-18T23:59:37.550Z,103332.44
